Página principal
METAR-TAF:

METAR-TAF

Aeroportos :

Moab, Utah, Estados Unidos

latitude: 38-45-36N, longitude: 109-44-41W, altura: 1388 m

Observação actual do tempo

O boletim foi feito há 13 minutos, às 06:28 UTC
Vento calmo
Temperatura -6°C
Humidade 100%
Pressão 1031 hPa
Visibilidade: 0.4 km
nevoeiro gelado

METAR: KCNY 100628Z AUTO 00000KT 1/4SM FZFG VV001 M06/M06 A3045 RMK AO2 I1000 T10561061

Hora: 23:41 (06:41 UTC)

Previsão

O boletim foi feito há 10 minutos, às 06:31 UTC
Previsão válida de 10 às 07 UTC a 11 às 06 UTC
Vento kt de norte
Visibilidade: 0.8 km
a uma altura de 200 ft
nevoeiro
A partir de 10 às 1500 UTC
Vento kt de norte
Visibilidade: 10 km
Nuvens dispersasa uma altura de 25000 ft
A partir de 10 às 2200 UTC
Vento 5 kt de nor-noroeste
Visibilidade: 10 km
Nuvens dispersasa uma altura de 10000 ft
Nuvens fragmentadasa uma altura de 19000 ft

TAF: KCNY 100631Z 1007/1106 00000KT 1/2SM FG VV002 FM101500 00000KT P6SM SCT250 FM102200 33005KT P6SM SCT100 BKN190

Observações e previsões do tempo de mais de 4000 aeroportos (mensagens METAR e TAF).

As estações disponíveis são os pontos amarelos e vermelhos sobre o mapa.

Mova o rato sobre o mapa para ver o nome da estação.

Depois clique no ponto para visualizar as observações e previsões meteorológicas.

Para alterar o mapa : clique nos botões verdes com uma cruz preta para aumentar o zoom; no botão verde com uma pitada de zoom; ou nas setas verdes para mapas adjacentes.


METAR-TAF: